• Join FlightAware (Why Join?)
  • Login
  • US Flag 
11:01AM EST


 

Airport Tracker/Info


-or-


 

Live Flight TrackerFlight Track Log ✈ N589H ✈ 28-Mar-2014 ✈ KPIE - TNCM / SXM

Flight Track Log - Related Links

Times and Time Zones

All times are in EDT time to prevent confusion due to time zone crossing. See the N589H flight status page for this flight to view local times or setup timezone preferences in your user account.

Time Position Orientation Groundspeed Altitude Reporting Facility
EDT Latitude Longitude Course Direction KTS MPH feet Rate Location/Type
05:04AM 27.9000 -82.6833 204° Southwest 142 163 700  Level Tampa TRACON
05:05AM 27.8667 -82.7000 204° Southwest 160 184 1,700 1,750 Climbing Tampa TRACON
05:06AM 27.8333 -82.7167 204° Southwest 182 209 3,500 1,700 Climbing Tampa TRACON
05:07AM 27.7833 -82.7333 196° South 186 214 5,100 1,650 Climbing Tampa TRACON
05:08AM 27.7333 -82.7333 180° South 216 249 6,800 1,568 Climbing Tampa TRACON
05:10AM 27.6289 -82.6500 145° Southeast 249 287 9,700 1,500 Climbing Miami Center
05:10AM 27.6189 -82.6378 133° Southeast 249 287 10,000 1,606 Climbing Miami Center
05:11AM 27.5625 -82.5928 145° Southeast 254 292 11,600 1,627 Climbing Miami Center
05:12AM 27.5061 -82.5408 141° Southeast 254 292 13,200 1,600 Climbing Miami Center
05:13AM 27.4733 -82.4669 117° Southeast 254 292 14,800 1,587 Climbing Miami Center
05:14AM 27.4431 -82.3928 115° Southeast 254 292 16,400 1,500 Climbing Miami Center
05:15AM 27.4144 -82.3167 113° Southeast 259 298 17,800 1,328 Climbing Miami Center
05:16AM 27.3844 -82.2311 112° Southeast 265 305 19,100 1,180 Climbing Miami Center
05:17AM 27.3478 -82.1475 116° Southeast 277 319 20,200 1,128 Climbing Miami Center
05:18AM 27.3153 -82.0619 113° Southeast 288 331 21,300 1,119 Climbing Miami Center
05:19AM 27.2828 -81.9789 114° Southeast 303 349 22,400 1,091 Climbing Miami Center
05:20AM 27.2483 -81.8908 114° Southeast 309 356 23,500 1,180 Climbing Miami Center
05:21AM 27.2081 -81.7886 114° Southeast 309 356 24,800 1,050 Climbing Miami Center
05:22AM 27.1694 -81.6983 116° Southeast 314 361 25,600 807 Climbing Miami Center
05:23AM 27.1328 -81.6036 113° Southeast 324 373 26,400 744 Climbing Miami Center
05:24AM 27.0961 -81.5133 115° Southeast 336 387 27,100 694 Climbing Miami Center
05:25AM 27.0497 -81.3997 115° Southeast 354 407 27,800 650 Climbing Miami Center
05:26AM 27.0092 -81.2933 113° Southeast 364 419 28,400 661 Climbing Miami Center
05:27AM 26.9644 -81.1867 115° Southeast 364 419 29,100 661 Climbing Miami Center
05:28AM 26.9233 -81.0872 115° Southeast 370 426 29,700 605 Climbing Miami Center
05:29AM 26.8828 -80.9789 113° Southeast 370 426 30,300 600 Climbing Miami Center
05:30AM 26.8339 -80.8608 115° Southeast 375 432 30,900 545 Climbing Miami Center
05:31AM 26.7886 -80.7522 115° Southeast 382 440 31,400 545 Climbing Miami Center
05:32AM 26.7436 -80.6414 114° Southeast 387 445 32,000 496 Climbing Miami Center
05:33AM 26.6983 -80.5306 115° Southeast 387 445 32,400 500 Climbing Miami Center
05:34AM 26.6511 -80.4200 116° Southeast 387 445 33,000 508 Climbing Miami Center
05:35AM 26.6056 -80.3117 115° Southeast 387 445 33,400 504 Climbing Miami Center
05:36AM 26.5622 -80.2011 114° Southeast 387 445 34,000 443 Climbing Miami Center
05:37AM 26.5186 -80.1025 116° Southeast 387 445 34,300 350 Climbing Miami Center
05:38AM 26.4711 -79.9806 113° Southeast 387 445 34,700 350 Climbing Miami Center
05:39AM 26.4292 -79.8797 115° Southeast 387 445 35,000 150 Climbing Miami Center
05:40AM 26.3775 -79.7578 115° Southeast 392 451 35,000  Level Miami Center
05:41AM 26.3336 -79.6525 115° Southeast 397 457 35,000  Level Miami Center
05:42AM 26.2775 -79.5236 116° Southeast 403 464 35,000  Level Miami Center
05:43AM 26.2294 -79.4044 114° Southeast 408 470 35,000  Level Miami Center
05:44AM 26.1792 -79.2853 115° Southeast 408 470 35,000  Level Miami Center
05:45AM 26.1289 -79.1664 115° Southeast 408 470 35,000  Level Miami Center
05:46AM 26.0786 -79.0472 115° Southeast 413 475 35,000  Level Miami Center
05:47AM 26.0281 -78.9283 115° Southeast 419 482 35,000  Level Miami Center
05:48AM 25.9753 -78.8097 116° Southeast 425 489 35,000  Level Miami Center
05:49AM 25.9267 -78.6889 114° Southeast 425 489 35,000  Level Miami Center
05:50AM 25.8717 -78.5725 118° Southeast 430 495 35,000  Level Miami Center
05:51AM 25.8231 -78.4539 114° Southeast 424 488 35,000  Level Miami Center
05:52AM 25.7719 -78.3333 115° Southeast 424 488 35,000  Level Miami Center
05:53AM 25.7208 -78.2175 116° Southeast 424 488 35,000  Level Miami Center
05:54AM 25.6675 -78.0992 117° Southeast 424 488 35,000  Level Miami Center
05:55AM 25.6225 -77.9767 112° Southeast 429 494 35,000  Level Miami Center
05:56AM 25.5711 -77.8769 120° Southeast 423 487 35,000  Level Miami Center
05:57AM 25.5194 -77.7614 116° Southeast 423 487 35,000  Level Miami Center
05:58AM 25.4700 -77.6436 115° Southeast 418 481 35,000  Level Miami Center
05:59AM 25.4183 -77.5261 116° Southeast 418 481 35,000  Level Miami Center
06:00AM 25.3625 -77.3992 116° Southeast 418 481 35,000  Level Miami Center
06:01AM 25.3128 -77.2842 116° Southeast 418 481 35,000  Level Miami Center
06:02AM 25.2608 -77.1667 116° Southeast 418 481 35,000  Level Miami Center
06:03AM 25.2086 -77.0517 117° Southeast 418 481 35,000  Level Miami Center
06:04AM 25.1564 -76.9344 116° Southeast 418 481 35,000  Level Miami Center
06:05AM 25.1042 -76.8197 117° Southeast 413 475 35,000  Level Miami Center
06:06AM 25.0519 -76.7028 116° Southeast 413 475 35,000  Level Miami Center
06:07AM 24.9994 -76.5883 117° Southeast 413 475 35,000  Level Miami Center
06:08AM 24.9492 -76.4714 115° Southeast 418 481 35,000  Level Miami Center
06:09AM 24.8922 -76.3547 118° Southeast 418 481 35,000  Level Miami Center
06:10AM 24.8397 -76.2381 116° Southeast 418 481 35,000  Level Miami Center
06:11AM 24.7953 -76.1331 115° Southeast 418 481 35,000  Level Miami Center
06:12AM 24.7486 -76.0167 114° Southeast 418 481 35,000  Level Miami Center
06:13AM 24.6894 -75.9028 120° Southeast 418 481 35,000  Level Miami Center
06:14AM 24.6364 -75.7889 117° Southeast 418 481 35,000  Level Miami Center
06:15AM 24.5853 -75.6750 116° Southeast 424 488 35,000  Level Miami Center
06:16AM 24.5322 -75.5567 116° Southeast 424 488 35,000  Level Miami Center
06:17AM 24.4725 -75.4317 118° Southeast 424 488 35,000  Level Miami Center
06:18AM 24.4211 -75.3161 116° Southeast 424 488 35,000  Level Miami Center
06:19AM 24.3697 -75.2050 117° Southeast 418 481 35,000  Level Miami Center
06:20AM 24.3161 -75.0917 117° Southeast 413 475 35,000  Level Miami Center
06:21AM 24.2647 -74.9806 117° Southeast 408 470 35,000  Level Miami Center
06:22AM 24.2131 -74.8675 117° Southeast 408 470 35,000  Level Miami Center
06:23AM 24.1614 -74.7567 117° Southeast 403 464 35,000  Level Miami Center
06:24AM 24.1097 -74.6461 117° Southeast 403 464 35,000  Level Miami Center
06:25AM 24.0556 -74.5333 118° Southeast 403 464 35,000  Level Miami Center
06:26AM 24.0036 -74.4228 117° Southeast 403 464 35,000  Level Miami Center
06:27AM 23.9497 -74.3100 118° Southeast 403 464 35,000  Level Miami Center
06:28AM 23.8975 -74.1975 117° Southeast 403 464 35,000  Level Miami Center
06:29AM 23.8453 -74.0875 117° Southeast 403 464 35,000  Level Miami Center
06:30AM 23.7931 -73.9794 118° Southeast 403 464 35,000  Level Miami Center
06:31AM 23.7431 -73.8694 116° Southeast 403 464 35,000  Level Miami Center
06:32AM 23.6906 -73.7597 118° Southeast 403 464 35,000  Level Miami Center
06:33AM 23.6381 -73.6519 118° Southeast 403 464 35,000  Level Miami Center
06:34AM 23.5856 -73.5422 118° Southeast 403 464 35,000  Level Miami Center
06:35AM 23.5289 -73.4350 120° Southeast 403 464 35,000  Level Miami Center
06:36AM 23.4803 -73.3253 116° Southeast 403 464 35,000  Level Miami Center
06:37AM 23.4342 -73.2317 118° Southeast 403 464 35,000  Level Miami Center
06:38AM 23.3814 -73.1222 118° Southeast 403 464 35,000  Level Miami Center
06:39AM 23.3308 -73.0153 117° Southeast 403 464 35,000  Level Miami Center
06:40AM 23.2756 -72.9061 119° Southeast 403 464 35,000  Level Miami Center
06:41AM 23.2250 -72.8036 118° Southeast 397 457 35,000  Level Miami Center
06:42AM 23.1758 -72.6944 116° Southeast 397 457 35,000  Level Miami Center
06:43AM 23.1228 -72.5856 118° Southeast 397 457 35,000  Level Miami Center
06:44AM 23.0675 -72.4792 119° Southeast 402 463 35,000  Level Miami Center
06:45AM 23.0206 -72.3725 116° Southeast 402 463 35,000  Level Miami Center
06:46AM 22.9589 -72.2664 122° Southeast 402 463 35,000  Level Miami Center
06:47AM 22.9075 -72.1600 118° Southeast 407 468 35,000  Level Miami Center
06:48AM 22.8542 -72.0539 119° Southeast 407 468 35,000  Level Miami Center
06:49AM 22.8006 -71.9433 118° Southeast 407 468 35,000  Level Miami Center
06:50AM 22.7467 -71.8350 118° Southeast 407 468 35,000  Level Miami Center
06:51AM 22.6950 -71.7269 117° Southeast 402 463 35,000  Level Miami Center
06:52AM 22.6414 -71.6233 119° Southeast 402 463 35,000  Level Miami Center
06:53AM 22.5853 -71.5111 118° Southeast 402 463 35,000  Level Miami Center
06:54AM 22.5336 -71.4031 117° Southeast 402 463 35,000  Level Miami Center
06:55AM 22.4794 -71.2931 118° Southeast 402 463 35,000  Level Miami Center
06:56AM 22.4253 -71.1853 119° Southeast 402 463 35,000  Level Miami Center
06:57AM 22.3692 -71.0756 119° Southeast 402 463 35,000  Level Miami Center
06:58AM 22.3128 -70.9661 119° Southeast 407 468 35,000  Level Miami Center
06:59AM 22.2586 -70.8631 120° Southeast 401 461 35,000  Level Miami Center
07:00AM 22.2042 -70.7536 118° Southeast 407 468 35,000  Level Miami Center
07:01AM 22.1475 -70.6464 120° Southeast 402 463 35,000  Level Miami Center
07:02AM 22.0931 -70.5394 119° Southeast 402 463 35,000  Level Miami Center
07:03AM 22.0386 -70.4300 118° Southeast 402 463 35,000  Level Miami Center
07:04AM 21.9839 -70.3233 119° Southeast 402 463 35,000  Level Miami Center
07:05AM 21.9292 -70.2164 119° Southeast 402 463 35,000  Level Miami Center
07:06AM 21.8744 -70.1075 118° Southeast 407 468 35,000  Level Miami Center
07:07AM 21.8175 -69.9986 119° Southeast 407 468 35,000  Level Miami Center
07:08AM 21.7558 -69.8836 120° Southeast 407 468 35,000  Level Miami Center
07:09AM 21.6989 -69.7750 119° Southeast 407 468 35,000  Level Miami Center
07:10AM 21.6458 -69.6664 118° Southeast 407 468 35,000  Level Miami Center
07:11AM 21.5908 -69.5603 119° Southeast 407 468 35,000  Level Miami Center
07:12AM 21.5314 -69.4544 121° Southeast 402 463 35,000  Level Miami Center
07:13AM 21.4764 -69.3506 120° Southeast 402 463 35,000  Level Miami Center
07:14AM 21.4211 -69.2444 119° Southeast 402 463 35,000  Level Miami Center
07:15AM 21.3700 -69.1386 117° Southeast 402 463 35,000  Level Miami Center
07:16AM 21.3128 -69.0350 121° Southeast 402 463 35,000  Level Miami Center
07:17AM 21.2550 -68.9250 119° Southeast 407 468 35,000  Level Miami Center
07:18AM 21.1997 -68.8239 120° Southeast 402 463 35,000  Level Miami Center
07:19AM 21.1464 -68.7183 118° Southeast 402 463 35,000  Level Miami Center
07:20AM 21.0886 -68.6108 120° Southeast 407 468 35,000  Level Miami Center
07:21AM 21.0350 -68.5078 119° Southeast 402 463 35,000  Level Miami Center
07:22AM 20.9772 -68.4028 120° Southeast 402 463 35,000  Level Miami Center
07:23AM 20.9217 -68.2975 119° Southeast 402 463 35,000  Level Miami Center
07:24AM 20.8656 -68.1903 119° Southeast 402 463 35,000  Level Miami Center
07:25AM 20.8078 -68.0856 121° Southeast 402 463 35,000  Level Miami Center
07:26AM 20.7581 -67.9803 117° Southeast 402 463 35,000  Level Miami Center
07:27AM 20.6936 -67.8761 123° Southeast 402 463 35,000  Level Miami Center
07:28AM 20.6336 -67.7742 122° Southeast 402 463 35,000  Level Miami Center
07:29AM 20.5817 -67.6694 118° Southeast 402 463 35,000  Level Miami Center
07:30AM 20.5275 -67.5625 118° Southeast 402 463 35,000  Level Miami Center
07:31AM 20.4667 -67.4333 117° Southeast 410 472 35,000  Level San Juan Center
07:32AM 20.4000 -67.3333 125° Southeast 400 460 35,000  Level San Juan Center
07:33AM 20.3500 -67.2333 118° Southeast 410 472 35,000  Level San Juan Center
07:34AM 20.3000 -67.1333 118° Southeast 410 472 35,000  Level San Juan Center
07:35AM 20.2333 -67.0167 121° Southeast 410 472 35,000  Level San Juan Center
07:36AM 20.1833 -66.9167 118° Southeast 410 472 35,000  Level San Juan Center
07:37AM 20.1167 -66.8167 125° Southeast 410 472 35,000  Level San Juan Center
07:38AM 20.0667 -66.7000 115° Southeast 410 472 35,000  Level San Juan Center
07:39AM 20.0000 -66.6000 125° Southeast 410 472 35,000  Level San Juan Center
07:40AM 19.9500 -66.5000 118° Southeast 410 472 35,000  Level San Juan Center
07:41AM 19.9000 -66.4000 118° Southeast 410 472 35,000  Level San Juan Center
07:42AM 19.8333 -66.3000 125° Southeast 400 460 35,000  Level San Juan Center
07:43AM 19.7833 -66.1833 114° Southeast 400 460 35,000  Level San Juan Center
07:44AM 19.7167 -66.0833 125° Southeast 400 460 35,000  Level San Juan Center
07:45AM 19.6667 -65.9833 118° Southeast 400 460 35,000  Level San Juan Center
07:46AM 19.6167 -65.8833 118° Southeast 400 460 35,000  Level San Juan Center
07:47AM 19.5500 -65.7833 125° Southeast 400 460 35,000  Level San Juan Center
07:48AM 19.5000 -65.6833 118° Southeast 400 460 35,000  Level San Juan Center
07:49AM 19.4500 -65.5833 118° Southeast 390 449 35,000  Level San Juan Center
07:50AM 19.3833 -65.4833 125° Southeast 400 460 35,000  Level San Juan Center
07:51AM 19.3333 -65.3833 118° Southeast 400 460 35,000  Level San Juan Center
07:52AM 19.2833 -65.2833 118° Southeast 390 449 35,000  Level San Juan Center
07:53AM 19.2167 -65.1667 121° Southeast 390 449 35,000 -550 Level San Juan Center
07:54AM 19.1500 -65.0667 125° Southeast 400 460 33,900 -1,537 Descending San Juan Center
07:55AM 19.1000 -64.9500 114° Southeast 420 483 31,900 -2,033 Descending San Juan Center
07:56AM 19.0333 -64.8500 125° Southeast 420 483 29,800 -1,950 Descending San Juan Center
07:57AM 18.9667 -64.7500 125° Southeast 420 483 28,000 -1,934 Descending San Juan Center
07:58AM 18.9167 -64.6333 114° Southeast 420 483 25,900 -2,033 Descending San Juan Center
07:59AM 18.8500 -64.5333 125° Southeast 400 460 23,900 -2,033 Descending San Juan Center
08:00AM 18.8000 -64.4333 118° Southeast 370 426 21,800 -2,033 Descending San Juan Center
08:01AM 18.7500 -64.3500 122° Southeast 370 426 19,800 -2,000 Descending San Juan Center
08:02AM 18.7000 -64.2500 118° Southeast 360 414 17,800 -1,835 Descending San Juan Center
08:03AM 18.6500 -64.1667 122° Southeast 340 391 16,100 -1,388 Descending San Juan Center
08:04AM 18.6000 -64.0833 122° Southeast 330 380 15,000 -550 Descending San Juan Center
08:05AM 18.5500 -64.0000 122° Southeast 310 357 15,000  Level San Juan Center
08:06AM 18.5000 -63.9500 137° Southeast 290 334 15,000  Level San Juan Center
08:07AM 18.4500 -63.8667 122° Southeast 320 368 15,000  Level San Juan Center